Time;durP1;ratioP1;P1;durP2;ratioP2;P2;SDS_P1;SDS_P2;PMS_P1;PMS_P2;Temp;Humidity;BMP_temperature;BMP_pressure;BME280_temperature;BME280_humidity;BME280_pressure;Samples;Min_cycle;Max_cycle;Signal;HPM_P1;HPM_P2
2023/03/27 08:19:40;;;;;;;4.68;1.67;;;;;;;;;;5066758;28;20453;-66
2023/03/27 08:22:07;;;;;;;5.43;2.30;;;;;;;;;;5066688;28;20037;-62
2023/03/27 08:24:34;;;;;;;4.72;1.75;;;;;;;;;;5067357;28;20375;-64
2023/03/27 08:27:00;;;;;;;5.03;1.98;;;;;;;;;;5067889;28;20040;-67
2023/03/27 08:29:27;;;;;;;4.32;1.65;;;;;;;;;;5066464;28;20020;-63
2023/03/27 08:31:53;;;;;;;3.85;1.88;;;;;;;;;;5067828;28;20023;-67
2023/03/27 08:34:19;;;;;;;5.47;2.10;;;;;;;;;;5048521;28;20025;-62
2023/03/27 08:36:45;;;;;;;3.97;2.00;;;;;;;;;;5045824;28;20108;-61
2023/03/27 08:39:11;;;;;;;5.03;2.58;;;;;;;;;;5047488;28;20035;-66
2023/03/27 08:41:40;;;;;;;5.45;2.05;;;;;;;;;;5047929;28;20101;-63
2023/03/27 08:44:10;;;;;;;3.95;1.83;;;;;;;;;;5047263;28;20381;-62
2023/03/27 08:46:39;;;;;;;5.07;2.38;;;;;;;;;;5047624;28;20032;-67
2023/03/27 08:49:08;;;;;;;3.75;2.08;;;;;;;;;;5047277;28;20470;-62
2023/03/27 08:51:43;;;;;;;5.18;2.00;;;;;;;;;;5047611;28;20825;-65
2023/03/27 08:54:16;;;;;;;4.53;2.00;;;;;;;;;;5047583;28;20432;-62
2023/03/27 08:56:42;;;;;;;3.70;1.92;;;;;;;;;;5047315;28;20032;-62
2023/03/27 08:59:15;;;;;;;5.28;2.50;;;;;;;;;;5047042;28;20356;-68
2023/03/27 09:01:44;;;;;;;3.20;2.17;;;;;;;;;;5047116;28;20052;-64
2023/03/27 09:04:11;;;;;;;5.13;2.60;;;;;;;;;;5045833;28;20055;-68
2023/03/27 09:06:38;;;;;;;7.20;3.03;;;;;;;;;;5047291;28;20017;-64
2023/03/27 09:09:23;;;;;;;6.57;2.88;;;;;;;;;;5046963;28;20068;-61
2023/03/27 09:12:03;;;;;;;6.45;2.55;;;;;;;;;;5046922;28;20035;-68
2023/03/27 09:14:31;;;;;;;6.97;2.70;;;;;;;;;;5046534;28;20044;-63
2023/03/27 09:16:59;;;;;;;7.57;2.75;;;;;;;;;;5046764;28;20492;-60
2023/03/27 09:19:28;;;;;;;6.82;2.90;;;;;;;;;;5046449;28;20440;-60
2023/03/27 09:21:57;;;;;;;5.07;2.67;;;;;;;;;;5046753;28;20039;-60
2023/03/27 09:24:23;;;;;;;6.53;1.90;;;;;;;;;;5046805;28;20457;-63
2023/03/27 09:26:51;;;;;;;4.25;2.15;;;;;;;;;;5046715;28;20108;-62
2023/03/27 09:29:19;;;;;;;3.72;1.73;;;;;;;;;;5042528;28;20033;-62
2023/03/27 09:31:46;;;;;;;5.15;1.70;;;;;;;;;;5032763;28;20029;-62
2023/03/27 09:34:14;;;;;;;6.82;1.83;;;;;;;;;;5033091;28;20029;-60
2023/03/27 09:36:40;;;;;;;5.18;1.90;;;;;;;;;;5033122;28;20033;-60
2023/03/27 09:39:11;;;;;;;5.30;2.35;;;;;;;;;;5032709;28;20037;-61
2023/03/27 09:41:48;;;;;;;4.93;2.50;;;;;;;;;;5033002;28;20057;-61
2023/03/27 09:44:14;;;;;;;4.28;2.40;;;;;;;;;;5033031;28;20473;-63
2023/03/27 09:46:45;;;;;;;3.75;1.60;;;;;;;;;;5032949;28;20033;-61
2023/03/27 09:49:18;;;;;;;3.88;1.50;;;;;;;;;;5032927;28;20037;-63
2023/03/27 09:51:48;;;;;;;4.60;1.80;;;;;;;;;;5032886;28;20026;-63
2023/03/27 09:54:16;;;;;;;3.70;1.80;;;;;;;;;;5032378;28;20029;-63
2023/03/27 09:56:45;;;;;;;4.45;2.10;;;;;;;;;;5032900;28;20079;-62
2023/03/27 09:59:19;;;;;;;5.18;2.03;;;;;;;;;;5031869;28;20116;-63
2023/03/27 10:01:49;;;;;;;3.22;1.30;;;;;;;;;;5032689;28;20044;-68
2023/03/27 10:04:17;;;;;;;3.60;1.42;;;;;;;;;;5032182;28;20037;-63
2023/03/27 10:06:56;;;;;;;4.50;1.85;;;;;;;;;;5032016;28;20025;-69
2023/03/27 10:09:26;;;;;;;4.15;1.30;;;;;;;;;;5032577;28;20036;-63
2023/03/27 10:12:22;;;;;;;2.40;1.40;;;;;;;;;;5032512;28;20050;-64
2023/03/27 10:14:50;;;;;;;4.88;1.90;;;;;;;;;;4990848;28;20110;-62
2023/03/27 10:17:22;;;;;;;4.00;1.85;;;;;;;;;;4989823;28;20022;-64
2023/03/27 10:19:51;;;;;;;4.32;1.98;;;;;;;;;;4989546;28;20038;-63
2023/03/27 10:22:30;;;;;;;5.57;1.60;;;;;;;;;;4990118;28;20037;-67
2023/03/27 10:25:04;;;;;;;3.78;1.70;;;;;;;;;;4990298;28;20038;-70
2023/03/27 10:27:32;;;;;;;3.75;1.70;;;;;;;;;;4990259;28;20054;-74
2023/03/27 10:29:58;;;;;;;3.50;1.90;;;;;;;;;;4990103;28;20030;-63
2023/03/27 10:32:43;;;;;;;5.30;1.90;;;;;;;;;;4990063;28;20139;-65
2023/03/27 10:35:27;;;;;;;9.70;2.25;;;;;;;;;;4990376;28;20438;-63
2023/03/27 10:37:54;;;;;;;5.55;2.38;;;;;;;;;;4990491;28;20048;-63
2023/03/27 10:40:24;;;;;;;5.57;2.38;;;;;;;;;;4989134;28;20058;-65
2023/03/27 10:42:50;;;;;;;4.35;2.10;;;;;;;;;;4989921;28;20505;-73
2023/03/27 10:45:18;;;;;;;5.93;1.95;;;;;;;;;;4990483;28;20102;-66
2023/03/27 10:47:46;;;;;;;4.20;1.58;;;;;;;;;;4973676;28;20042;-67
2023/03/27 10:50:18;;;;;;;3.58;1.40;;;;;;;;;;4977457;28;20095;-64
2023/03/27 10:53:08;;;;;;;3.17;1.40;;;;;;;;;;5031962;28;20029;-64
2023/03/27 10:55:43;;;;;;;3.25;1.70;;;;;;;;;;5031993;28;20037;-69
2023/03/27 10:58:42;;;;;;;3.75;1.77;;;;;;;;;;5032008;28;20121;-66
2023/03/27 11:01:20;;;;;;;4.03;1.92;;;;;;;;;;4986697;28;20038;-70
2023/03/27 11:03:50;;;;;;;3.33;2.00;;;;;;;;;;4988559;28;20113;-64
2023/03/27 11:06:18;;;;;;;4.97;2.22;;;;;;;;;;4990048;28;20037;-64
2023/03/27 11:09:14;;;;;;;3.60;2.55;;;;;;;;;;4989849;28;20041;-64
2023/03/27 11:11:46;;;;;;;4.93;2.58;;;;;;;;;;4981370;28;20073;-64
2023/03/27 11:14:18;;;;;;;3.83;2.80;;;;;;;;;;4989712;28;20022;-65
2023/03/27 11:16:47;;;;;;;3.55;2.80;;;;;;;;;;4989792;28;20522;-64
2023/03/27 11:19:22;;;;;;;4.97;3.35;;;;;;;;;;4988218;28;20050;-65
2023/03/27 11:21:51;;;;;;;3.60;2.88;;;;;;;;;;4989401;28;20026;-71
2023/03/27 11:24:17;;;;;;;3.67;2.95;;;;;;;;;;4988966;28;20437;-65
2023/03/27 11:26:50;;;;;;;2.95;2.50;;;;;;;;;;4954037;28;20038;-66
2023/03/27 11:29:21;;;;;;;3.88;2.30;;;;;;;;;;4984621;28;20522;-70
2023/03/27 11:31:49;;;;;;;2.53;1.90;;;;;;;;;;4987992;28;20510;-69
2023/03/27 11:34:15;;;;;;;3.10;2.00;;;;;;;;;;4978337;28;20031;-72
2023/03/27 11:36:50;;;;;;;2.28;1.80;;;;;;;;;;4990448;28;20046;-70
2023/03/27 11:39:29;;;;;;;14.40;3.03;;;;;;;;;;5011111;28;20109;-69
2023/03/27 11:41:56;;;;;;;9.95;2.15;;;;;;;;;;5011236;28;20022;-66
2023/03/27 11:44:23;;;;;;;1.35;1.05;;;;;;;;;;5011220;28;20433;-67
2023/03/27 11:46:55;;;;;;;2.53;1.52;;;;;;;;;;5011103;28;20022;-66
2023/03/27 11:49:32;;;;;;;2.25;1.58;;;;;;;;;;5011237;28;20482;-66
2023/03/27 11:52:05;;;;;;;6.53;1.77;;;;;;;;;;5010939;28;20038;-64
2023/03/27 11:54:31;;;;;;;2.58;1.42;;;;;;;;;;5011109;28;20478;-63
2023/03/27 11:57:00;;;;;;;2.00;1.42;;;;;;;;;;5010940;28;20437;-62
2023/03/27 11:59:32;;;;;;;2.97;1.13;;;;;;;;;;5027076;28;20116;-70
2023/03/27 12:02:17;;;;;;;2.08;1.23;;;;;;;;;;5030997;28;20049;-71
2023/03/27 12:05:22;;;;;;;3.00;1.30;;;;;;;;;;5030290;28;20099;-69
2023/03/27 12:07:53;;;;;;;3.97;1.65;;;;;;;;;;4988843;28;20037;-65
2023/03/27 12:10:19;;;;;;;4.43;1.67;;;;;;;;;;4988891;28;20109;-70
2023/03/27 12:13:20;;;;;;;2.65;1.65;;;;;;;;;;4988705;28;20486;-66
2023/03/27 12:15:54;;;;;;;3.17;1.70;;;;;;;;;;4969558;28;20027;-65
2023/03/27 12:18:26;;;;;;;2.78;1.73;;;;;;;;;;4969106;28;20790;-62
2023/03/27 12:21:01;;;;;;;3.33;1.90;;;;;;;;;;4969574;28;20031;-65
2023/03/27 12:23:42;;;;;;;3.47;1.85;;;;;;;;;;4969259;28;20069;-65
2023/03/27 12:26:17;;;;;;;5.07;2.50;;;;;;;;;;4969508;28;20067;-63
2023/03/27 12:28:43;;;;;;;4.53;1.55;;;;;;;;;;4969517;28;20045;-65
2023/03/27 12:31:20;;;;;;;4.20;1.75;;;;;;;;;;4969464;28;20045;-65
2023/03/27 12:33:46;;;;;;;2.72;1.55;;;;;;;;;;4969309;28;20031;-66
2023/03/27 12:36:15;;;;;;;4.03;1.70;;;;;;;;;;4969471;28;20121;-64
2023/03/27 12:38:42;;;;;;;3.60;1.92;;;;;;;;;;5002204;28;20136;-64
2023/03/27 12:41:12;;;;;;;6.20;2.40;;;;;;;;;;5024579;28;20029;-63
2023/03/27 12:43:43;;;;;;;4.53;2.20;;;;;;;;;;5007692;28;20084;-63
2023/03/27 12:46:14;;;;;;;4.10;2.20;;;;;;;;;;5008489;28;20028;-63
2023/03/27 12:48:56;;;;;;;9.03;2.43;;;;;;;;;;5009430;28;20046;-63
2023/03/27 12:51:42;;;;;;;4.90;2.33;;;;;;;;;;5030098;28;20030;-62
2023/03/27 12:54:14;;;;;;;5.50;2.50;;;;;;;;;;5028484;28;20033;-63
2023/03/27 12:56:41;;;;;;;3.70;2.10;;;;;;;;;;5030180;28;20505;-63
2023/03/27 12:59:13;;;;;;;3.33;1.95;;;;;;;;;;5030049;28;20048;-63
2023/03/27 13:01:43;;;;;;;4.15;2.30;;;;;;;;;;5030018;28;20034;-63
2023/03/27 13:04:22;;;;;;;4.78;2.45;;;;;;;;;;5030202;28;20068;-67
2023/03/27 13:06:48;;;;;;;4.97;2.90;;;;;;;;;;5033628;28;20033;-66
2023/03/27 13:09:30;;;;;;;5.40;2.67;;;;;;;;;;5033657;28;20025;-63
2023/03/27 13:11:57;;;;;;;5.07;2.28;;;;;;;;;;5033451;28;20025;-62
2023/03/27 13:14:26;;;;;;;4.22;2.53;;;;;;;;;;5033571;28;20053;-63
2023/03/27 13:16:52;;;;;;;3.05;2.08;;;;;;;;;;5033636;28;20096;-63
2023/03/27 13:19:36;;;;;;;3.65;2.33;;;;;;;;;;5033186;28;20477;-62
2023/03/27 13:22:02;;;;;;;7.07;3.92;;;;;;;;;;5029630;28;20104;-63
2023/03/27 13:24:34;;;;;;;4.75;3.38;;;;;;;;;;5032187;28;20104;-63
2023/03/27 13:27:11;;;;;;;5.20;2.80;;;;;;;;;;5028954;28;20032;-63
2023/03/27 13:29:38;;;;;;;5.90;2.70;;;;;;;;;;5032539;28;20025;-62
2023/03/27 13:32:36;;;;;;;5.40;2.58;;;;;;;;;;5031970;28;20051;-63
2023/03/27 13:35:25;;;;;;;5.82;2.17;;;;;;;;;;4988268;28;20042;-64
2023/03/27 13:37:56;;;;;;;4.13;2.38;;;;;;;;;;4990912;28;20084;-59
2023/03/27 13:40:40;;;;;;;3.97;2.95;;;;;;;;;;4989737;28;20418;-65
2023/03/27 13:43:27;;;;;;;4.57;2.85;;;;;;;;;;4990077;28;20057;-59
2023/03/27 13:45:57;;;;;;;4.93;2.70;;;;;;;;;;4990930;28;20105;-65
2023/03/27 13:48:42;;;;;;;4.72;2.60;;;;;;;;;;4988565;28;20034;-61
2023/03/27 13:51:34;;;;;;;3.72;2.50;;;;;;;;;;4987336;28;20030;-61
2023/03/27 13:54:03;;;;;;;5.53;2.83;;;;;;;;;;4991272;28;20050;-59
2023/03/27 13:56:29;;;;;;;4.90;2.90;;;;;;;;;;4990287;28;20181;-62
2023/03/27 13:58:58;;;;;;;5.57;3.17;;;;;;;;;;4989012;28;20060;-65
2023/03/27 14:01:41;;;;;;;5.53;2.72;;;;;;;;;;4987671;28;20027;-61
2023/03/27 14:04:13;;;;;;;5.72;2.83;;;;;;;;;;4989517;28;20034;-62
2023/03/27 14:06:39;;;;;;;4.40;2.60;;;;;;;;;;4989724;28;20041;-62
2023/03/27 14:09:23;;;;;;;3.70;2.40;;;;;;;;;;4989874;28;20027;-64
2023/03/27 14:11:57;;;;;;;3.35;2.05;;;;;;;;;;5029093;28;20029;-67
2023/03/27 14:14:32;;;;;;;5.55;2.10;;;;;;;;;;5028727;28;20045;-60
2023/03/27 14:17:16;;;;;;;6.18;2.65;;;;;;;;;;5030444;28;20037;-61
2023/03/27 14:19:42;;;;;;;4.25;2.08;;;;;;;;;;5030757;28;20084;-61
2023/03/27 14:22:30;;;;;;;4.18;2.80;;;;;;;;;;5031421;28;20110;-61
2023/03/27 14:24:59;;;;;;;4.95;2.80;;;;;;;;;;5030537;28;20328;-62
2023/03/27 14:27:26;;;;;;;4.63;3.03;;;;;;;;;;5031828;28;20109;-68
2023/03/27 14:30:13;;;;;;;5.60;2.95;;;;;;;;;;5032102;28;20025;-61
2023/03/27 14:32:39;;;;;;;4.88;2.53;;;;;;;;;;5031478;28;20472;-63
2023/03/27 14:35:06;;;;;;;4.25;2.63;;;;;;;;;;5031239;28;20079;-64
2023/03/27 14:37:34;;;;;;;3.78;2.40;;;;;;;;;;5030970;28;20449;-60
2023/03/27 14:40:05;;;;;;;5.93;2.90;;;;;;;;;;5015240;28;20030;-63
2023/03/27 14:42:32;;;;;;;4.93;2.97;;;;;;;;;;5014912;28;20013;-68
2023/03/27 14:45:08;;;;;;;6.28;3.38;;;;;;;;;;5012404;28;20029;-70
2023/03/27 14:47:34;;;;;;;5.25;2.58;;;;;;;;;;5012345;28;20026;-60
2023/03/27 14:50:01;;;;;;;4.07;2.60;;;;;;;;;;5013579;28;20133;-68
2023/03/27 14:52:33;;;;;;;5.18;2.90;;;;;;;;;;5029729;28;20025;-66
2023/03/27 14:55:00;;;;;;;4.38;2.53;;;;;;;;;;5013758;28;20426;-59
2023/03/27 14:57:27;;;;;;;5.57;2.97;;;;;;;;;;5029831;28;20049;-61
2023/03/27 14:59:54;;;;;;;5.45;2.80;;;;;;;;;;5030867;28;20103;-59
2023/03/27 15:02:20;;;;;;;6.63;2.78;;;;;;;;;;5021926;28;20025;-59
2023/03/27 15:04:46;;;;;;;3.58;2.42;;;;;;;;;;5031097;28;20369;-59
2023/03/27 15:07:27;;;;;;;5.35;3.00;;;;;;;;;;5030310;28;20044;-60
2023/03/27 15:10:21;;;;;;;4.93;2.63;;;;;;;;;;5028003;28;20112;-67
2023/03/27 15:12:47;;;;;;;5.00;2.90;;;;;;;;;;5026709;28;20087;-70
2023/03/27 15:15:22;;;;;;;4.32;2.55;;;;;;;;;;5030772;28;20064;-62
2023/03/27 15:17:49;;;;;;;4.40;2.47;;;;;;;;;;5030920;28;20053;-60
2023/03/27 15:20:18;;;;;;;4.85;2.80;;;;;;;;;;5030974;28;20538;-62
2023/03/27 15:22:47;;;;;;;7.03;2.90;;;;;;;;;;5031214;28;20469;-61
2023/03/27 15:25:16;;;;;;;6.15;3.20;;;;;;;;;;5030199;28;20393;-65
2023/03/27 15:27:47;;;;;;;4.15;2.60;;;;;;;;;;5026884;28;20116;-71
2023/03/27 15:30:25;;;;;;;5.95;2.80;;;;;;;;;;5031144;28;20022;-67
2023/03/27 15:32:53;;;;;;;6.03;2.40;;;;;;;;;;5031258;28;20034;-69
2023/03/27 15:35:27;;;;;;;5.78;2.45;;;;;;;;;;5031212;28;20018;-62
2023/03/27 15:37:55;;;;;;;4.82;2.65;;;;;;;;;;5030400;28;20025;-62
2023/03/27 15:40:35;;;;;;;4.80;2.53;;;;;;;;;;5023770;28;20033;-67
2023/03/27 15:43:04;;;;;;;4.47;3.08;;;;;;;;;;5030643;28;20496;-67
2023/03/27 15:45:38;;;;;;;6.35;3.00;;;;;;;;;;5029162;28;20034;-61
2023/03/27 15:48:05;;;;;;;5.38;3.25;;;;;;;;;;5016090;28;20056;-60
2023/03/27 15:50:32;;;;;;;5.43;3.55;;;;;;;;;;5029470;28;20473;-66
2023/03/27 15:53:00;;;;;;;7.30;3.50;;;;;;;;;;5030165;28;20026;-65
2023/03/27 15:55:38;;;;;;;6.47;3.55;;;;;;;;;;5030839;28;20018;-62
2023/03/27 15:58:28;;;;;;;5.03;3.08;;;;;;;;;;5030731;28;20324;-65
2023/03/27 16:00:59;;;;;;;5.35;3.17;;;;;;;;;;4989016;28;20101;-61
2023/03/27 16:03:26;;;;;;;6.53;3.90;;;;;;;;;;4988678;28;20117;-61
2023/03/27 16:05:55;;;;;;;5.93;3.50;;;;;;;;;;4989073;28;20103;-71
2023/03/27 16:08:35;;;;;;;7.43;3.88;;;;;;;;;;4988759;28;20063;-60
2023/03/27 16:11:01;;;;;;;10.02;3.40;;;;;;;;;;4989133;28;20023;-64
2023/03/27 16:13:41;;;;;;;6.53;3.58;;;;;;;;;;4988777;28;20113;-72
2023/03/27 16:16:21;;;;;;;8.30;3.78;;;;;;;;;;4988070;28;20026;-73
2023/03/27 16:18:50;;;;;;;5.60;3.38;;;;;;;;;;4988148;28;20061;-65
2023/03/27 16:21:19;;;;;;;6.90;3.90;;;;;;;;;;4987779;28;20038;-64
2023/03/27 16:23:45;;;;;;;7.22;3.30;;;;;;;;;;4988633;28;20528;-63
2023/03/27 16:26:20;;;;;;;7.40;3.95;;;;;;;;;;4988549;28;20517;-63
2023/03/27 16:28:46;;;;;;;6.68;3.72;;;;;;;;;;4988697;28;20041;-63
2023/03/27 16:31:14;;;;;;;5.65;2.72;;;;;;;;;;4988437;28;20039;-76
2023/03/27 16:33:44;;;;;;;3.70;2.35;;;;;;;;;;4988775;28;20045;-63
2023/03/27 16:36:14;;;;;;;5.00;2.08;;;;;;;;;;4988279;28;20030;-64
2023/03/27 16:38:42;;;;;;;3.72;2.22;;;;;;;;;;5021940;28;20041;-65
2023/03/27 16:41:15;;;;;;;5.32;2.10;;;;;;;;;;5033197;28;20071;-63
2023/03/27 16:43:42;;;;;;;4.45;2.50;;;;;;;;;;5022373;28;20421;-65
2023/03/27 16:46:12;;;;;;;5.20;2.40;;;;;;;;;;5033658;28;20033;-63
2023/03/27 16:48:38;;;;;;;5.53;2.50;;;;;;;;;;5028691;28;20737;-64
2023/03/27 16:51:04;;;;;;;4.38;2.80;;;;;;;;;;5034561;28;20091;-71
2023/03/27 16:53:30;;;;;;;6.90;2.70;;;;;;;;;;5021805;28;20021;-64
2023/03/27 16:55:56;;;;;;;3.95;2.20;;;;;;;;;;5023416;28;20568;-69
2023/03/27 16:58:22;;;;;;;3.70;1.92;;;;;;;;;;5032914;28;20041;-73
2023/03/27 17:00:48;;;;;;;4.30;2.33;;;;;;;;;;5027235;28;20048;-67
2023/03/27 17:03:15;;;;;;;4.80;2.00;;;;;;;;;;5026668;28;20026;-65
2023/03/27 17:05:42;;;;;;;5.10;2.42;;;;;;;;;;5023666;28;20076;-64
2023/03/27 17:08:09;;;;;;;4.80;2.55;;;;;;;;;;5031617;28;20026;-63
2023/03/27 17:10:35;;;;;;;5.32;1.70;;;;;;;;;;5032358;28;20120;-64
2023/03/27 17:13:01;;;;;;;5.18;2.70;;;;;;;;;;5032562;28;20045;-64
2023/03/27 17:15:27;;;;;;;3.35;1.98;;;;;;;;;;5018661;28;20048;-64
2023/03/27 17:17:53;;;;;;;3.67;2.45;;;;;;;;;;5018269;28;20065;-66
2023/03/27 17:20:20;;;;;;;3.63;2.35;;;;;;;;;;5032736;28;20022;-68
2023/03/27 17:22:46;;;;;;;3.75;2.70;;;;;;;;;;5032409;28;20510;-65
2023/03/27 17:25:12;;;;;;;3.53;2.38;;;;;;;;;;5021689;28;20132;-64
2023/03/27 17:27:38;;;;;;;3.25;2.20;;;;;;;;;;5020798;28;20025;-73
2023/03/27 17:30:05;;;;;;;4.63;2.70;;;;;;;;;;5032794;28;20563;-68
2023/03/27 17:32:31;;;;;;;5.75;2.30;;;;;;;;;;5033222;28;20022;-63
2023/03/27 17:34:57;;;;;;;4.20;2.60;;;;;;;;;;5023443;28;20152;-63
2023/03/27 17:37:24;;;;;;;5.97;3.30;;;;;;;;;;5020808;28;20100;-68
2023/03/27 17:39:50;;;;;;;6.68;3.65;;;;;;;;;;5024922;28;20047;-73
2023/03/27 17:42:17;;;;;;;5.28;3.30;;;;;;;;;;5033223;28;20068;-66
2023/03/27 17:44:43;;;;;;;10.15;4.97;;;;;;;;;;5032874;28;20048;-62
2023/03/27 17:47:10;;;;;;;6.75;4.00;;;;;;;;;;5032231;28;20104;-71
2023/03/27 17:49:36;;;;;;;7.43;3.97;;;;;;;;;;5021066;28;20029;-64
2023/03/27 17:52:06;;;;;;;6.22;3.10;;;;;;;;;;5031454;28;20025;-65
2023/03/27 17:54:33;;;;;;;14.38;4.35;;;;;;;;;;5031971;28;20018;-61
2023/03/27 17:57:00;;;;;;;8.75;4.45;;;;;;;;;;5031656;28;20021;-68
2023/03/27 17:59:27;;;;;;;13.23;5.30;;;;;;;;;;5021586;28;20080;-71
2023/03/27 18:01:53;;;;;;;13.00;5.82;;;;;;;;;;5022718;28;20022;-64
2023/03/27 18:04:19;;;;;;;12.45;5.75;;;;;;;;;;5021424;28;20037;-65
2023/03/27 18:06:45;;;;;;;10.57;4.88;;;;;;;;;;5021736;28;20461;-65
2023/03/27 18:09:11;;;;;;;9.15;4.85;;;;;;;;;;5022505;28;20113;-66
2023/03/27 18:11:37;;;;;;;6.97;4.60;;;;;;;;;;5021227;28;20141;-66
2023/03/27 18:14:03;;;;;;;7.20;4.47;;;;;;;;;;5029305;28;20021;-64
2023/03/27 18:16:29;;;;;;;6.30;3.95;;;;;;;;;;5031317;28;20072;-71
2023/03/27 18:18:56;;;;;;;9.40;4.43;;;;;;;;;;5020188;28;20117;-64
2023/03/27 18:21:22;;;;;;;4.47;3.55;;;;;;;;;;5022030;28;20409;-64
2023/03/27 18:23:49;;;;;;;5.68;3.75;;;;;;;;;;5022144;28;20470;-75
2023/03/27 18:26:15;;;;;;;5.20;3.40;;;;;;;;;;5020186;28;20032;-64
2023/03/27 18:28:41;;;;;;;9.65;4.30;;;;;;;;;;5021692;28;20121;-64
2023/03/27 18:31:09;;;;;;;9.90;4.35;;;;;;;;;;5021666;28;20029;-64
2023/03/27 18:33:35;;;;;;;8.73;4.50;;;;;;;;;;5030892;28;20053;-63
2023/03/27 18:36:02;;;;;;;8.40;4.35;;;;;;;;;;5031029;28;20064;-65
2023/03/27 18:38:28;;;;;;;8.13;5.15;;;;;;;;;;5031028;28;20033;-63
2023/03/27 18:40:54;;;;;;;6.55;4.53;;;;;;;;;;5022274;28;20432;-65
2023/03/27 18:43:21;;;;;;;7.80;5.28;;;;;;;;;;5030986;28;20247;-65
2023/03/27 18:45:53;;;;;;;6.80;4.85;;;;;;;;;;5021221;28;20421;-64
2023/03/27 18:48:19;;;;;;;5.35;4.40;;;;;;;;;;5022165;28;20401;-64
2023/03/27 18:50:51;;;;;;;8.07;5.10;;;;;;;;;;5019787;28;20038;-69
2023/03/27 18:53:17;;;;;;;8.65;4.43;;;;;;;;;;5030860;28;20454;-64
2023/03/27 18:55:47;;;;;;;7.18;4.20;;;;;;;;;;5030520;28;20507;-64
2023/03/27 18:58:13;;;;;;;10.10;3.90;;;;;;;;;;5031551;28;20033;-65
2023/03/27 19:00:39;;;;;;;6.72;4.30;;;;;;;;;;5031997;28;20454;-64
2023/03/27 19:03:05;;;;;;;9.93;5.25;;;;;;;;;;5030546;28;20472;-68
2023/03/27 19:05:31;;;;;;;6.70;4.90;;;;;;;;;;5031933;28;20025;-75
2023/03/27 19:07:58;;;;;;;6.38;4.72;;;;;;;;;;5031291;28;20032;-64
2023/03/27 19:10:24;;;;;;;7.72;4.90;;;;;;;;;;5030884;28;20063;-72
2023/03/27 19:12:51;;;;;;;6.63;5.03;;;;;;;;;;5027567;28;20485;-64
2023/03/27 19:15:17;;;;;;;7.07;5.55;;;;;;;;;;5030170;28;20036;-68
2023/03/27 19:17:43;;;;;;;7.22;4.32;;;;;;;;;;5019086;28;20052;-63
2023/03/27 19:20:09;;;;;;;7.43;4.80;;;;;;;;;;5021438;28;20108;-64
2023/03/27 19:22:35;;;;;;;8.25;4.45;;;;;;;;;;5020010;28;20137;-64
2023/03/27 19:25:01;;;;;;;6.10;4.30;;;;;;;;;;5019710;28;20079;-64
2023/03/27 19:27:27;;;;;;;6.03;3.95;;;;;;;;;;5013784;28;20385;-65
2023/03/27 19:29:54;;;;;;;7.65;3.42;;;;;;;;;;5011305;28;20080;-64
2023/03/27 19:32:20;;;;;;;5.40;3.33;;;;;;;;;;5026589;28;20075;-62
2023/03/27 19:34:46;;;;;;;4.70;3.03;;;;;;;;;;5030590;28;20049;-64
2023/03/27 19:37:12;;;;;;;5.57;2.45;;;;;;;;;;5030589;28;20539;-64
2023/03/27 19:39:38;;;;;;;5.82;3.55;;;;;;;;;;5030735;28;20124;-63
2023/03/27 19:42:04;;;;;;;8.35;3.75;;;;;;;;;;5030625;28;20136;-65
2023/03/27 19:44:31;;;;;;;4.97;2.80;;;;;;;;;;5030798;28;20040;-69
2023/03/27 19:46:57;;;;;;;5.47;3.45;;;;;;;;;;5031405;28;20025;-69
2023/03/27 19:49:23;;;;;;;4.45;2.88;;;;;;;;;;5031942;28;20463;-68
2023/03/27 19:51:49;;;;;;;6.32;3.38;;;;;;;;;;5030961;28;20816;-70
2023/03/27 19:54:15;;;;;;;7.25;3.30;;;;;;;;;;5030850;28;20032;-70
2023/03/27 19:56:41;;;;;;;6.53;4.10;;;;;;;;;;5030813;28;20053;-70
2023/03/27 19:59:07;;;;;;;7.50;3.97;;;;;;;;;;5030996;28;20037;-71
2023/03/27 20:01:36;;;;;;;6.15;3.33;;;;;;;;;;5031235;28;20460;-72
2023/03/27 20:04:02;;;;;;;7.65;3.70;;;;;;;;;;5030649;28;20440;-71
2023/03/27 20:06:28;;;;;;;7.70;3.45;;;;;;;;;;5029895;28;20473;-72
2023/03/27 20:08:59;;;;;;;7.32;3.03;;;;;;;;;;5030468;28;20060;-71
2023/03/27 20:11:26;;;;;;;4.50;2.72;;;;;;;;;;5030427;28;20022;-71
2023/03/27 20:13:53;;;;;;;4.57;2.40;;;;;;;;;;5030235;28;20029;-70
2023/03/27 20:16:19;;;;;;;4.93;2.72;;;;;;;;;;5030459;28;20025;-69
2023/03/27 20:18:53;;;;;;;5.57;2.90;;;;;;;;;;5030058;28;20493;-71
2023/03/27 20:21:23;;;;;;;4.32;2.15;;;;;;;;;;5030133;28;20022;-71
2023/03/27 20:23:52;;;;;;;5.35;2.60;;;;;;;;;;5030509;28;20025;-71
2023/03/27 20:26:20;;;;;;;3.85;2.40;;;;;;;;;;5030204;28;20484;-71
2023/03/27 20:28:46;;;;;;;3.45;2.47;;;;;;;;;;5029286;28;20096;-72
2023/03/27 20:31:12;;;;;;;5.13;2.30;;;;;;;;;;5029390;28;20436;-70
2023/03/27 20:33:38;;;;;;;7.85;2.60;;;;;;;;;;5029787;28;20021;-73
2023/03/27 20:36:04;;;;;;;6.00;2.80;;;;;;;;;;5029269;28;20033;-72
2023/03/27 20:38:31;;;;;;;3.85;2.45;;;;;;;;;;5019061;28;20071;-71
2023/03/27 20:41:02;;;;;;;5.35;1.95;;;;;;;;;;5019438;28;20026;-68
2023/03/27 20:43:29;;;;;;;6.65;3.30;;;;;;;;;;5012022;28;20030;-69
2023/03/27 20:45:59;;;;;;;3.92;1.88;;;;;;;;;;5010469;28;20112;-64
2023/03/27 20:48:25;;;;;;;4.50;2.67;;;;;;;;;;5010556;28;20083;-60
2023/03/27 20:50:52;;;;;;;2.70;1.58;;;;;;;;;;5010698;28;20176;-62
2023/03/27 20:53:24;;;;;;;3.63;2.20;;;;;;;;;;5010410;28;20152;-60
2023/03/27 20:55:54;;;;;;;4.53;2.20;;;;;;;;;;5010398;28;20498;-70
2023/03/27 20:58:20;;;;;;;5.72;2.17;;;;;;;;;;5010500;28;20119;-62
2023/03/27 21:00:47;;;;;;;4.05;2.10;;;;;;;;;;5010728;28;20042;-64
2023/03/27 21:03:15;;;;;;;4.70;2.20;;;;;;;;;;5010381;28;20030;-60
2023/03/27 21:05:41;;;;;;;8.98;2.47;;;;;;;;;;5010800;28;20057;-60
2023/03/27 21:08:07;;;;;;;5.60;2.63;;;;;;;;;;5010447;28;20026;-69
2023/03/27 21:10:33;;;;;;;5.72;2.25;;;;;;;;;;5017594;28;20025;-60
2023/03/27 21:12:59;;;;;;;1.92;1.67;;;;;;;;;;5019735;28;20080;-61
2023/03/27 21:15:25;;;;;;;4.10;2.42;;;;;;;;;;5028847;28;20025;-60
2023/03/27 21:17:52;;;;;;;8.10;2.70;;;;;;;;;;5019208;28;20077;-60
2023/03/27 21:20:18;;;;;;;4.20;2.50;;;;;;;;;;5019364;28;20416;-60
2023/03/27 21:22:45;;;;;;;5.05;2.63;;;;;;;;;;5028824;28;20354;-60
2023/03/27 21:25:11;;;;;;;4.90;2.10;;;;;;;;;;5029056;28;20096;-64
2023/03/27 21:27:37;;;;;;;3.85;2.65;;;;;;;;;;5032393;28;20104;-66
